createdAt,value
2018-07-15T00:00:16.325Z,17.13
2018-07-15T00:01:16.388Z,17.11
2018-07-15T00:02:16.653Z,17.09
2018-07-15T00:03:16.920Z,17.08
2018-07-15T00:04:17.214Z,17.01
2018-07-15T00:05:16.494Z,16.98
2018-07-15T00:06:16.799Z,17.19
2018-07-15T00:07:17.136Z,17.11
2018-07-15T00:08:16.476Z,17.05
2018-07-15T00:09:16.740Z,17.05
2018-07-15T00:10:17.005Z,16.98
2018-07-15T00:11:17.070Z,16.95
2018-07-15T00:12:16.334Z,17.01
2018-07-15T00:13:16.596Z,16.97
2018-07-15T00:14:16.856Z,16.90
2018-07-15T00:15:17.121Z,16.87
2018-07-15T00:16:16.379Z,16.79
2018-07-15T00:17:16.641Z,16.79
2018-07-15T00:18:16.919Z,16.76
2018-07-15T00:19:17.178Z,16.76
2018-07-15T00:21:16.506Z,16.62
2018-07-15T00:22:16.768Z,16.61
2018-07-15T00:23:17.035Z,16.61
2018-07-15T00:24:16.294Z,16.67
2018-07-15T00:25:16.562Z,16.68
2018-07-15T00:26:16.830Z,16.60
2018-07-15T00:27:17.092Z,16.57
2018-07-15T00:28:16.361Z,16.57
2018-07-15T00:29:16.619Z,16.57
2018-07-15T00:30:16.912Z,16.57
2018-07-15T00:31:16.926Z,16.56
2018-07-15T00:32:17.182Z,16.53
2018-07-15T00:33:16.450Z,16.53
2018-07-15T00:34:16.706Z,16.51
2018-07-15T00:35:16.974Z,16.39
2018-07-15T00:36:16.234Z,16.39
2018-07-15T00:37:16.497Z,16.49
2018-07-15T00:38:16.759Z,16.51
2018-07-15T00:39:16.410Z,16.50
2018-07-15T00:40:16.668Z,16.44
2018-07-15T00:41:16.723Z,16.43
2018-07-15T00:42:16.988Z,16.46
2018-07-15T00:43:16.253Z,16.44
2018-07-15T00:44:16.519Z,16.44
2018-07-15T00:45:16.778Z,16.47
2018-07-15T00:46:17.035Z,16.50
2018-07-15T00:47:16.297Z,16.42
2018-07-15T00:48:16.566Z,16.39
2018-07-15T00:49:16.821Z,16.29
2018-07-15T00:50:17.088Z,16.30
2018-07-15T00:51:17.127Z,16.30
2018-07-15T00:52:16.389Z,16.29
2018-07-15T00:53:16.629Z,16.28
2018-07-15T00:54:16.890Z,16.28
2018-07-15T00:55:17.217Z,16.24
2018-07-15T00:56:16.580Z,16.26
2018-07-15T00:57:16.842Z,16.26
2018-07-15T00:58:17.881Z,16.22
2018-07-15T00:59:17.140Z,16.21
2018-07-15T01:00:16.421Z,16.25
2018-07-15T01:01:16.467Z,16.24
2018-07-15T01:02:16.742Z,16.24
2018-07-15T01:03:16.999Z,16.26
2018-07-15T01:04:16.279Z,16.24
2018-07-15T01:05:16.550Z,16.21
2018-07-15T01:06:16.813Z,16.29
2018-07-15T01:07:17.072Z,16.24
2018-07-15T01:08:16.328Z,16.18
2018-07-15T01:09:16.601Z,16.32
2018-07-15T01:10:16.867Z,16.21
2018-07-15T01:11:16.909Z,16.17
2018-07-15T01:12:17.186Z,16.24
2018-07-15T01:13:16.445Z,16.24
2018-07-15T01:14:16.702Z,16.16
2018-07-15T01:15:16.971Z,16.07
2018-07-15T01:16:16.228Z,16.06
2018-07-15T01:17:16.506Z,16.00
2018-07-15T01:18:16.753Z,16.04
2018-07-15T01:19:17.009Z,16.03
2018-07-15T01:20:16.281Z,16.00
2018-07-15T01:21:16.314Z,16.04
2018-07-15T01:22:16.572Z,16.00
2018-07-15T01:23:16.829Z,15.92
2018-07-15T01:24:17.092Z,15.92
2018-07-15T01:25:16.356Z,15.92
2018-07-15T01:26:16.618Z,15.95
2018-07-15T01:27:16.878Z,15.92
2018-07-15T01:28:17.142Z,15.91
2018-07-15T01:29:16.404Z,15.95
2018-07-15T01:30:16.681Z,15.98
2018-07-15T01:31:16.724Z,15.93
2018-07-15T01:32:16.989Z,15.93
2018-07-15T01:33:16.244Z,15.86
2018-07-15T01:34:16.500Z,15.77
2018-07-15T01:35:16.770Z,15.75
2018-07-15T01:36:17.023Z,15.74
2018-07-15T01:37:16.285Z,15.65
2018-07-15T01:38:16.544Z,15.63
2018-07-15T01:39:16.798Z,15.63
2018-07-15T01:40:17.060Z,15.57
2018-07-15T01:41:17.101Z,15.54
2018-07-15T01:42:16.362Z,15.54
2018-07-15T01:43:16.634Z,15.59
2018-07-15T01:44:16.892Z,15.63
2018-07-15T01:45:17.151Z,15.65
2018-07-15T01:46:16.406Z,15.69
2018-07-15T01:47:16.664Z,15.84
2018-07-15T01:48:16.929Z,15.79
2018-07-15T01:49:17.503Z,15.66
2018-07-15T01:50:16.834Z,15.60
2018-07-15T01:51:16.889Z,15.60
2018-07-15T01:52:17.155Z,15.60
2018-07-15T01:53:16.422Z,15.55
2018-07-15T01:54:16.681Z,15.43
2018-07-15T01:55:16.940Z,15.44
2018-07-15T01:56:16.196Z,15.38
2018-07-15T01:57:16.460Z,15.32
2018-07-15T01:58:16.715Z,15.47
2018-07-15T01:59:16.972Z,15.40
2018-07-15T02:00:16.243Z,15.40
2018-07-15T02:01:16.273Z,15.36
2018-07-15T02:02:16.543Z,15.36
2018-07-15T02:03:16.820Z,15.34
2018-07-15T02:04:17.086Z,15.33
2018-07-15T02:05:16.352Z,15.32
2018-07-15T02:06:16.605Z,15.33
2018-07-15T02:07:16.859Z,15.33
2018-07-15T02:08:17.122Z,15.33
2018-07-15T02:09:16.392Z,15.15
2018-07-15T02:10:16.672Z,15.20
2018-07-15T02:11:16.687Z,15.23
2018-07-15T02:12:16.955Z,15.23
2018-07-15T02:13:16.224Z,15.22
2018-07-15T02:14:16.497Z,15.19
2018-07-15T02:15:16.766Z,15.19
2018-07-15T02:16:17.019Z,15.15
2018-07-15T02:17:16.262Z,15.12
2018-07-15T02:18:16.527Z,15.12
2018-07-15T02:19:16.791Z,15.11
2018-07-15T02:20:17.176Z,15.08
2018-07-15T02:21:17.108Z,15.13
2018-07-15T02:22:16.363Z,15.19
2018-07-15T02:23:16.617Z,15.16
2018-07-15T02:24:16.878Z,15.18
2018-07-15T02:25:17.291Z,15.19
2018-07-15T02:26:16.561Z,15.20
2018-07-15T02:27:16.825Z,15.19
2018-07-15T02:28:17.081Z,15.09
2018-07-15T02:29:16.347Z,15.08
2018-07-15T02:30:16.614Z,15.08
2018-07-15T02:31:16.671Z,15.08
2018-07-15T02:32:16.938Z,15.13
2018-07-15T02:33:16.205Z,15.04
2018-07-15T02:34:16.469Z,15.01
2018-07-15T02:35:16.735Z,15.06
2018-07-15T02:36:16.996Z,15.06
2018-07-15T02:37:16.257Z,15.06
2018-07-15T02:38:16.513Z,15.04
2018-07-15T02:39:16.782Z,15.04
2018-07-15T02:40:17.317Z,15.04
2018-07-15T02:41:17.094Z,15.01
2018-07-15T02:42:16.360Z,15.00
2018-07-15T02:43:16.621Z,14.94
2018-07-15T02:44:16.878Z,14.92
2018-07-15T02:45:17.145Z,14.93
2018-07-15T02:46:16.407Z,14.90
2018-07-15T02:47:16.779Z,14.87
2018-07-15T02:48:17.038Z,14.87
2018-07-15T02:49:16.307Z,14.87
2018-07-15T02:50:16.578Z,14.87
2018-07-15T02:51:16.939Z,14.92
2018-07-15T02:52:16.199Z,14.93
2018-07-15T02:53:16.464Z,14.90
2018-07-15T02:54:16.729Z,14.86
2018-07-15T02:55:16.997Z,14.90
2018-07-15T02:56:16.259Z,14.89
2018-07-15T02:57:16.544Z,14.87
2018-07-15T02:58:16.818Z,14.87
2018-07-15T02:59:17.078Z,14.83
2018-07-15T03:00:16.372Z,14.85
2018-07-15T03:01:16.394Z,14.83
2018-07-15T03:02:16.963Z,14.86
2018-07-15T03:03:16.222Z,14.85
2018-07-15T03:04:16.494Z,14.87
2018-07-15T03:05:16.769Z,14.92
2018-07-15T03:06:17.035Z,14.92
2018-07-15T03:07:16.293Z,14.90
2018-07-15T03:08:16.565Z,14.90
2018-07-15T03:09:16.830Z,14.86
2018-07-15T03:10:17.114Z,14.83
2018-07-15T03:11:17.139Z,14.80
2018-07-15T03:12:16.419Z,14.76
2018-07-15T03:13:16.684Z,14.74
2018-07-15T03:14:16.957Z,14.69
2018-07-15T03:15:16.220Z,14.65
2018-07-15T03:16:16.536Z,14.65
2018-07-15T03:17:16.820Z,14.65
2018-07-15T03:18:17.179Z,14.65
2018-07-15T03:19:16.438Z,14.58
2018-07-15T03:20:16.705Z,14.53
2018-07-15T03:21:16.756Z,14.58
2018-07-15T03:22:17.019Z,14.69
2018-07-15T03:23:16.281Z,14.72
2018-07-15T03:24:16.546Z,14.71
2018-07-15T03:25:16.811Z,14.61
2018-07-15T03:26:17.074Z,14.60
2018-07-15T03:27:16.328Z,14.58
2018-07-15T03:28:16.580Z,14.55
2018-07-15T03:29:16.841Z,14.54
2018-07-15T03:30:17.107Z,14.53
2018-07-15T03:31:17.177Z,14.57
2018-07-15T03:32:16.448Z,14.58
2018-07-15T03:33:16.717Z,14.58
2018-07-15T03:34:16.976Z,14.64
2018-07-15T03:35:16.244Z,14.64
2018-07-15T03:36:16.501Z,14.60
2018-07-15T03:37:16.760Z,14.57
2018-07-15T03:38:17.024Z,14.55
2018-07-15T03:39:16.287Z,14.48
2018-07-15T03:40:16.566Z,14.35
2018-07-15T03:41:16.600Z,14.38
2018-07-15T03:42:16.865Z,14.36
2018-07-15T03:43:17.135Z,14.34
2018-07-15T03:44:16.392Z,14.38
2018-07-15T03:45:16.655Z,14.31
2018-07-15T03:46:16.916Z,14.28
2018-07-15T03:47:17.175Z,14.28
2018-07-15T03:48:16.428Z,14.32
2018-07-15T03:49:16.699Z,14.34
2018-07-15T03:50:16.969Z,14.39
2018-07-15T03:51:17.009Z,14.43
2018-07-15T03:52:16.281Z,14.43
2018-07-15T03:53:16.532Z,14.43
2018-07-15T03:54:16.800Z,14.47
2018-07-15T03:55:17.077Z,14.47
2018-07-15T03:56:16.338Z,14.50
2018-07-15T03:57:16.595Z,14.48
2018-07-15T03:58:16.853Z,14.50
2018-07-15T03:59:17.120Z,14.50
2018-07-15T04:00:16.387Z,14.58
2018-07-15T04:01:16.439Z,14.55
2018-07-15T04:02:16.705Z,14.54
2018-07-15T04:03:16.962Z,14.61
2018-07-15T04:04:16.228Z,14.61
2018-07-15T04:05:16.511Z,14.62
2018-07-15T04:06:16.769Z,14.67
2018-07-15T04:07:17.037Z,14.69
2018-07-15T04:08:16.571Z,14.69
2018-07-15T04:09:16.833Z,14.69
2018-07-15T04:10:17.103Z,14.72
2018-07-15T04:11:17.140Z,14.94
2018-07-15T04:12:16.400Z,14.92
2018-07-15T04:13:16.661Z,15.11
2018-07-15T04:14:16.922Z,15.09
2018-07-15T04:15:17.180Z,15.09
2018-07-15T04:16:16.443Z,15.04
2018-07-15T04:17:16.710Z,15.02
2018-07-15T04:18:16.979Z,15.06
2018-07-15T04:19:16.243Z,15.11
2018-07-15T04:20:16.516Z,15.11
2018-07-15T04:21:16.550Z,15.11
2018-07-15T04:22:16.820Z,15.19
2018-07-15T04:23:17.086Z,15.26
2018-07-15T04:24:16.352Z,15.36
2018-07-15T04:25:16.634Z,15.37
2018-07-15T04:26:16.922Z,15.40
2018-07-15T04:27:17.184Z,15.50
2018-07-15T04:28:16.452Z,15.52
2018-07-15T04:29:16.881Z,15.54
2018-07-15T04:30:17.142Z,15.50
2018-07-15T04:31:16.218Z,15.51
2018-07-15T04:32:16.479Z,15.60
2018-07-15T04:33:16.734Z,15.66
2018-07-15T04:34:16.998Z,15.84
2018-07-15T04:35:16.253Z,15.96
2018-07-15T04:36:16.508Z,16.02
2018-07-15T04:37:16.781Z,15.98
2018-07-15T04:38:17.043Z,15.88
2018-07-15T04:39:16.300Z,15.84
2018-07-15T04:40:16.571Z,15.85
2018-07-15T04:41:16.589Z,15.88
2018-07-15T04:42:16.917Z,15.86
2018-07-15T04:43:17.182Z,15.81
2018-07-15T04:44:16.448Z,15.91
2018-07-15T04:45:16.698Z,15.98
2018-07-15T04:46:16.961Z,16.09
2018-07-15T04:47:16.211Z,15.98
2018-07-15T04:48:16.475Z,15.99
2018-07-15T04:49:16.737Z,15.89
2018-07-15T04:50:17.015Z,15.92
2018-07-15T04:51:17.059Z,16.02
2018-07-15T04:52:16.317Z,16.06
2018-07-15T04:53:16.578Z,16.02
2018-07-15T04:54:16.839Z,15.96
2018-07-15T04:55:17.097Z,16.04
2018-07-15T04:56:16.357Z,16.24
2018-07-15T04:57:16.611Z,16.36
2018-07-15T04:58:16.863Z,16.29
2018-07-15T04:59:17.148Z,16.29
2018-07-15T05:00:16.441Z,16.26
2018-07-15T05:01:16.458Z,16.36
2018-07-15T05:02:16.719Z,16.50
2018-07-15T05:03:16.975Z,16.49
2018-07-15T05:04:16.237Z,16.60
2018-07-15T05:05:16.495Z,16.67
2018-07-15T05:06:16.756Z,16.75
2018-07-15T05:07:17.027Z,16.90
2018-07-15T05:08:16.286Z,17.07
2018-07-15T05:09:16.544Z,17.22
2018-07-15T05:10:16.802Z,17.41
2018-07-15T05:11:16.935Z,17.52
2018-07-15T05:12:16.392Z,17.64
2018-07-15T05:13:16.661Z,17.78
2018-07-15T05:14:16.915Z,17.88
2018-07-15T05:15:17.187Z,18.02
2018-07-15T05:16:16.457Z,18.17
2018-07-15T05:17:16.720Z,18.15
2018-07-15T05:18:17.015Z,17.98
2018-07-15T05:19:16.328Z,18.09
2018-07-15T05:20:16.600Z,18.12
2018-07-15T05:21:16.641Z,18.18
2018-07-15T05:22:16.894Z,18.19
2018-07-15T05:23:17.157Z,18.31
2018-07-15T05:24:16.427Z,18.62
2018-07-15T05:25:16.688Z,18.57
2018-07-15T05:26:16.952Z,18.55
2018-07-15T05:27:16.209Z,18.75
2018-07-15T05:28:16.486Z,18.91
2018-07-15T05:29:16.752Z,19.08
2018-07-15T05:30:17.020Z,19.22
2018-07-15T05:31:17.074Z,19.41
2018-07-15T05:32:16.333Z,19.15
2018-07-15T05:33:16.588Z,18.91
2018-07-15T05:34:16.844Z,19.31
2018-07-15T05:35:17.164Z,19.38
2018-07-15T05:36:16.446Z,19.48
2018-07-15T05:37:16.703Z,19.68
2018-07-15T05:38:16.961Z,19.74
2018-07-15T05:39:16.220Z,19.75
2018-07-15T05:40:16.509Z,19.88
2018-07-15T05:41:16.547Z,20.27
2018-07-15T05:42:16.807Z,20.50
2018-07-15T05:43:17.069Z,20.55
2018-07-15T05:44:16.359Z,20.62
2018-07-15T05:45:16.976Z,20.83
2018-07-15T05:46:16.238Z,21.00
2018-07-15T05:47:16.504Z,21.20
2018-07-15T05:48:16.768Z,21.11
2018-07-15T05:49:17.034Z,21.15
2018-07-15T05:50:16.302Z,21.45
2018-07-15T05:51:16.327Z,21.55
2018-07-15T05:52:16.584Z,21.64
2018-07-15T05:53:16.845Z,21.63
2018-07-15T05:54:17.104Z,21.88
2018-07-15T05:55:16.368Z,21.76
2018-07-15T05:56:16.629Z,21.84
2018-07-15T05:57:16.890Z,22.13
2018-07-15T05:58:17.144Z,22.46
2018-07-15T05:59:16.418Z,22.49
2018-07-15T06:00:16.691Z,22.38
2018-07-15T06:01:16.726Z,21.49
2018-07-15T06:02:16.986Z,21.15
2018-07-15T06:03:16.251Z,21.38
2018-07-15T06:04:16.524Z,20.97
2018-07-15T06:05:16.784Z,21.01
2018-07-15T06:06:17.051Z,21.59
2018-07-15T06:07:16.328Z,22.18
2018-07-15T06:08:16.589Z,22.21
2018-07-15T06:09:16.854Z,22.07
2018-07-15T06:10:17.137Z,21.88
2018-07-15T06:11:17.168Z,22.07
2018-07-15T06:12:16.437Z,21.88
2018-07-15T06:13:16.708Z,21.81
2018-07-15T06:14:16.974Z,21.80
2018-07-15T06:15:16.237Z,21.81
2018-07-15T06:16:16.500Z,22.41
2018-07-15T06:17:16.758Z,22.15
2018-07-15T06:18:17.023Z,21.81
2018-07-15T06:19:16.285Z,22.09
2018-07-15T06:20:16.548Z,22.10
2018-07-15T06:21:16.585Z,22.45
2018-07-15T06:22:16.841Z,22.90
2018-07-15T06:23:17.104Z,23.12
2018-07-15T06:24:16.366Z,23.02
2018-07-15T06:25:16.625Z,22.95
2018-07-15T06:26:16.899Z,23.08
2018-07-15T06:27:17.152Z,22.75
2018-07-15T06:28:16.416Z,23.06
2018-07-15T06:29:16.677Z,23.36
2018-07-15T06:30:17.001Z,23.54
2018-07-15T06:31:17.047Z,23.54
2018-07-15T06:32:16.306Z,23.48
2018-07-15T06:33:16.575Z,24.01
2018-07-15T06:34:16.832Z,24.23
2018-07-15T06:35:17.374Z,24.32
2018-07-15T06:36:16.637Z,24.38
2018-07-15T06:37:16.906Z,24.46
2018-07-15T06:38:17.178Z,24.49
2018-07-15T06:39:16.434Z,24.75
2018-07-15T06:40:16.709Z,24.93
2018-07-15T06:41:16.719Z,24.60
2018-07-15T06:42:16.990Z,24.92
2018-07-15T06:43:16.252Z,24.42
2018-07-15T06:44:16.507Z,24.60
2018-07-15T06:45:16.772Z,24.96
2018-07-15T06:46:17.029Z,24.89
2018-07-15T06:47:16.287Z,25.19
2018-07-15T06:48:16.545Z,25.69
2018-07-15T06:49:16.804Z,25.88
2018-07-15T06:50:17.210Z,26.40
2018-07-15T06:51:16.221Z,26.48
2018-07-15T06:52:16.480Z,26.58
2018-07-15T06:53:16.742Z,26.52
2018-07-15T06:54:17.009Z,26.31
2018-07-15T06:55:16.269Z,26.59
2018-07-15T06:56:16.521Z,26.61
2018-07-15T06:57:16.785Z,26.86
2018-07-15T06:58:17.053Z,26.72
2018-07-15T06:59:16.319Z,27.42
2018-07-15T07:00:16.581Z,27.40
2018-07-15T07:01:16.638Z,27.39
2018-07-15T07:02:16.898Z,28.28
2018-07-15T07:03:17.171Z,28.43
2018-07-15T07:04:16.437Z,28.17
2018-07-15T07:05:16.709Z,28.62
2018-07-15T07:06:16.974Z,28.59
2018-07-15T07:07:16.313Z,28.93
2018-07-15T07:08:16.711Z,29.01
2018-07-15T07:09:16.964Z,28.76
2018-07-15T07:10:16.230Z,28.28
2018-07-15T07:11:16.255Z,29.05
2018-07-15T07:12:16.506Z,29.18
2018-07-15T07:13:16.770Z,29.20
2018-07-15T07:14:17.051Z,29.48
2018-07-15T07:15:16.571Z,29.22
2018-07-15T07:16:16.837Z,29.29
2018-07-15T07:17:17.368Z,28.35
2018-07-15T07:18:16.631Z,28.45
2018-07-15T07:19:16.891Z,28.27
2018-07-15T07:20:17.164Z,29.66
2018-07-15T07:21:17.199Z,29.77
2018-07-15T07:22:16.477Z,29.26
2018-07-15T07:23:16.750Z,30.34
2018-07-15T07:24:17.013Z,30.67
2018-07-15T07:25:16.289Z,31.24
2018-07-15T07:26:16.556Z,31.00
2018-07-15T07:27:16.833Z,29.91
2018-07-15T07:28:17.094Z,29.50
2018-07-15T07:29:16.363Z,29.65
2018-07-15T07:30:16.633Z,30.28
2018-07-15T07:31:16.692Z,30.53
2018-07-15T07:32:16.953Z,31.28
2018-07-15T07:33:16.215Z,31.65
2018-07-15T07:34:16.478Z,30.20
2018-07-15T07:35:16.808Z,28.14
2018-07-15T07:36:17.105Z,27.88
2018-07-15T07:37:16.354Z,28.23
2018-07-15T07:38:16.613Z,29.72
2018-07-15T07:39:16.870Z,30.31
2018-07-15T07:40:17.150Z,30.35
2018-07-15T07:41:17.192Z,28.86
2018-07-15T07:42:16.582Z,29.02
2018-07-15T07:43:16.845Z,28.68
2018-07-15T07:44:17.113Z,28.39
2018-07-15T07:45:16.379Z,29.25
2018-07-15T07:46:16.651Z,27.93
2018-07-15T07:47:16.914Z,28.14
2018-07-15T07:48:17.173Z,27.72
2018-07-15T07:49:16.429Z,29.45
2018-07-15T07:50:16.699Z,30.45
2018-07-15T07:51:16.740Z,31.19
2018-07-15T07:52:17.009Z,31.45
2018-07-15T07:53:16.281Z,30.34
2018-07-15T07:54:16.601Z,30.80
2018-07-15T07:55:16.856Z,29.44
2018-07-15T07:56:17.118Z,28.91
2018-07-15T07:57:16.390Z,29.77
2018-07-15T07:58:16.653Z,30.25
2018-07-15T07:59:16.917Z,30.38
2018-07-15T08:00:17.494Z,30.60
2018-07-15T08:01:16.245Z,30.70
2018-07-15T08:02:16.509Z,30.53
2018-07-15T08:03:16.775Z,30.71
2018-07-15T08:04:17.036Z,30.06
2018-07-15T08:05:16.309Z,30.13
2018-07-15T08:06:16.573Z,30.13
2018-07-15T08:07:16.829Z,30.50
2018-07-15T08:08:17.100Z,30.27
2018-07-15T08:09:16.364Z,28.41
2018-07-15T08:10:16.641Z,28.13
2018-07-15T08:11:16.681Z,27.46
2018-07-15T08:12:16.947Z,27.57
2018-07-15T08:13:16.206Z,28.27
2018-07-15T08:14:16.461Z,28.66
2018-07-15T08:15:16.749Z,28.83
2018-07-15T08:16:16.216Z,29.18
2018-07-15T08:17:16.490Z,28.76
2018-07-15T08:18:16.748Z,28.76
2018-07-15T08:19:17.017Z,28.18
2018-07-15T08:20:16.284Z,28.55
2018-07-15T08:21:16.326Z,28.70
2018-07-15T08:22:16.586Z,29.48
2018-07-15T08:23:16.848Z,29.84
2018-07-15T08:24:17.111Z,29.92
2018-07-15T08:25:16.377Z,29.72
2018-07-15T08:26:16.632Z,29.33
2018-07-15T08:27:16.892Z,29.73
2018-07-15T08:28:17.249Z,29.14
2018-07-15T08:29:16.651Z,28.94
2018-07-15T08:30:16.949Z,28.90
2018-07-15T08:31:16.983Z,29.48
2018-07-15T08:32:16.242Z,29.85
2018-07-15T08:33:16.536Z,30.11
2018-07-15T08:34:16.797Z,29.83
2018-07-15T08:35:17.604Z,29.69
2018-07-15T08:36:16.861Z,29.79
2018-07-15T08:37:17.121Z,29.65
2018-07-15T08:38:16.376Z,29.69
2018-07-15T08:39:16.637Z,29.77
2018-07-15T08:40:16.896Z,29.95
2018-07-15T08:41:16.948Z,30.07
2018-07-15T08:42:16.210Z,30.78
2018-07-15T08:43:16.475Z,30.70
2018-07-15T08:44:16.732Z,30.67
2018-07-15T08:45:16.994Z,30.32
2018-07-15T08:46:16.264Z,30.34
2018-07-15T08:47:16.525Z,30.34
2018-07-15T08:48:16.785Z,30.35
2018-07-15T08:49:17.050Z,30.46
2018-07-15T08:50:16.317Z,30.43
2018-07-15T08:51:16.687Z,30.56
2018-07-15T08:52:16.950Z,30.13
2018-07-15T08:53:16.215Z,30.56
2018-07-15T08:54:16.485Z,30.62
2018-07-15T08:55:16.741Z,31.17
2018-07-15T08:56:17.000Z,31.33
2018-07-15T08:57:16.257Z,31.65
2018-07-15T08:58:16.592Z,31.92
2018-07-15T08:59:16.855Z,32.36
2018-07-15T09:00:17.129Z,32.58
2018-07-15T09:01:17.687Z,32.22
2018-07-15T09:02:16.945Z,32.25
2018-07-15T09:03:16.267Z,33.07
2018-07-15T09:04:16.604Z,33.13
2018-07-15T09:05:16.889Z,33.16
2018-07-15T09:06:17.153Z,33.02
2018-07-15T09:07:16.413Z,32.83
2018-07-15T09:08:16.674Z,33.44
2018-07-15T09:09:16.936Z,34.42
2018-07-15T09:10:17.201Z,33.48
2018-07-15T09:11:16.256Z,32.81
2018-07-15T09:12:16.518Z,32.29
2018-07-15T09:13:16.776Z,32.43
2018-07-15T09:14:17.033Z,33.23
2018-07-15T09:15:16.292Z,34.00
2018-07-15T09:16:16.556Z,34.76
2018-07-15T09:17:16.820Z,34.90
2018-07-15T09:18:17.122Z,34.95
2018-07-15T09:19:16.441Z,33.40
2018-07-15T09:20:16.707Z,32.93
2018-07-15T09:21:16.769Z,35.22
2018-07-15T09:22:17.166Z,35.05
2018-07-15T09:23:16.433Z,34.48
2018-07-15T09:24:16.699Z,35.87
2018-07-15T09:25:16.956Z,36.46
2018-07-15T09:26:16.209Z,35.94
2018-07-15T09:27:16.473Z,35.85
2018-07-15T09:28:16.731Z,34.40
2018-07-15T09:29:16.987Z,34.12
2018-07-15T09:30:16.241Z,34.73
2018-07-15T09:31:16.314Z,35.57
2018-07-15T09:32:16.581Z,35.91
2018-07-15T09:33:16.852Z,32.60
2018-07-15T09:34:17.103Z,33.41
2018-07-15T09:35:16.357Z,33.98
2018-07-15T09:36:16.629Z,33.04
2018-07-15T09:37:16.912Z,33.44
2018-07-15T09:38:17.173Z,33.84
2018-07-15T09:39:16.433Z,35.92
2018-07-15T09:40:16.689Z,36.08
2018-07-15T09:41:16.733Z,35.52
2018-07-15T09:42:17.005Z,35.37
2018-07-15T09:43:16.264Z,36.02
2018-07-15T09:44:16.525Z,36.12
2018-07-15T09:45:16.786Z,36.03
2018-07-15T09:46:17.070Z,36.46
2018-07-15T09:47:16.332Z,37.06
2018-07-15T09:48:16.597Z,34.95
2018-07-15T09:49:16.865Z,34.52
2018-07-15T09:50:17.141Z,33.08
2018-07-15T09:51:17.177Z,33.26
2018-07-15T09:52:16.436Z,33.50
2018-07-15T09:53:16.688Z,32.37
2018-07-15T09:54:16.950Z,32.94
2018-07-15T09:55:16.205Z,32.98
2018-07-15T09:56:16.475Z,32.58
2018-07-15T09:57:16.745Z,34.01
2018-07-15T09:58:17.013Z,34.56
2018-07-15T09:59:16.363Z,34.26
2018-07-15T10:00:16.642Z,35.67
2018-07-15T10:01:16.664Z,35.56
2018-07-15T10:02:16.930Z,35.88
2018-07-15T10:03:17.194Z,36.10
2018-07-15T10:04:16.468Z,35.78
2018-07-15T10:05:16.737Z,36.13
2018-07-15T10:06:16.998Z,34.59
2018-07-15T10:07:16.256Z,33.93
2018-07-15T10:08:16.510Z,34.09
2018-07-15T10:09:16.769Z,33.77
2018-07-15T10:10:17.039Z,32.83
2018-07-15T10:11:17.077Z,33.79
2018-07-15T10:12:16.336Z,35.08
2018-07-15T10:13:16.628Z,35.95
2018-07-15T10:14:16.888Z,36.60
2018-07-15T10:15:17.158Z,36.45
2018-07-15T10:16:16.425Z,35.96
2018-07-15T10:17:16.678Z,35.40
2018-07-15T10:18:16.942Z,35.04
2018-07-15T10:19:16.207Z,35.71
2018-07-15T10:20:16.479Z,35.94
2018-07-15T10:21:16.523Z,36.62
2018-07-15T10:22:16.780Z,37.17
2018-07-15T10:23:17.038Z,36.51
2018-07-15T10:24:16.305Z,37.05
2018-07-15T10:25:16.564Z,37.69
2018-07-15T10:26:16.831Z,37.62
2018-07-15T10:27:17.097Z,37.77
2018-07-15T10:28:16.349Z,38.23
2018-07-15T10:29:16.616Z,37.55
2018-07-15T10:30:16.893Z,36.72
2018-07-15T10:31:16.931Z,35.66
2018-07-15T10:32:17.203Z,36.16
2018-07-15T10:33:16.489Z,36.83
2018-07-15T10:34:16.964Z,37.56
2018-07-15T10:35:16.220Z,38.26
2018-07-15T10:36:16.479Z,37.16
2018-07-15T10:37:16.754Z,36.62
2018-07-15T10:38:17.171Z,37.58
2018-07-15T10:39:16.431Z,37.87
2018-07-15T10:40:16.694Z,38.09
2018-07-15T10:41:16.743Z,37.67
2018-07-15T10:42:17.009Z,37.86
2018-07-15T10:43:16.275Z,38.20
2018-07-15T10:44:16.590Z,38.04
2018-07-15T10:45:16.873Z,36.92
2018-07-15T10:46:17.125Z,37.44
2018-07-15T10:47:16.377Z,37.54
2018-07-15T10:48:16.637Z,37.10
2018-07-15T10:49:16.892Z,37.58
2018-07-15T10:50:17.160Z,37.51
2018-07-15T10:51:16.208Z,37.19
2018-07-15T10:52:16.472Z,38.05
2018-07-15T10:53:16.740Z,37.37
2018-07-15T10:54:17.000Z,37.08
2018-07-15T10:55:16.265Z,37.06
2018-07-15T10:56:16.531Z,36.01
2018-07-15T10:57:16.792Z,36.12
2018-07-15T10:58:17.049Z,36.72
2018-07-15T10:59:16.312Z,36.65
2018-07-15T11:00:16.592Z,36.72
2018-07-15T11:01:16.630Z,37.42
2018-07-15T11:02:16.893Z,36.03
2018-07-15T11:03:17.154Z,36.38
2018-07-15T11:04:16.428Z,36.19
2018-07-15T11:05:16.685Z,35.95
2018-07-15T11:06:16.975Z,34.69
2018-07-15T11:07:16.251Z,33.20
2018-07-15T11:08:16.523Z,31.95
2018-07-15T11:09:16.781Z,32.25
2018-07-15T11:10:17.054Z,32.25
2018-07-15T11:11:17.096Z,33.19
2018-07-15T11:12:16.354Z,34.63
2018-07-15T11:13:16.674Z,35.51
2018-07-15T11:14:17.011Z,36.03
2018-07-15T11:15:16.288Z,34.72
2018-07-15T11:16:16.543Z,34.69
2018-07-15T11:17:16.807Z,35.51
2018-07-15T11:18:17.069Z,36.72
2018-07-15T11:19:16.331Z,36.46
2018-07-15T11:20:16.590Z,36.48
2018-07-15T11:21:16.649Z,36.34
2018-07-15T11:22:16.917Z,36.62
2018-07-15T11:23:16.326Z,36.59
2018-07-15T11:24:16.582Z,36.27
2018-07-15T11:25:16.848Z,35.74
2018-07-15T11:26:17.122Z,35.43
2018-07-15T11:27:16.373Z,35.41
2018-07-15T11:28:16.623Z,35.27
2018-07-15T11:29:16.889Z,35.84
2018-07-15T11:30:17.159Z,34.66
2018-07-15T11:31:16.303Z,34.84
2018-07-15T11:32:16.616Z,35.36
2018-07-15T11:33:16.881Z,35.53
2018-07-15T11:34:17.151Z,35.80
2018-07-15T11:35:16.436Z,36.20
2018-07-15T11:36:16.692Z,36.40
2018-07-15T11:37:16.987Z,36.70
2018-07-15T11:38:16.241Z,36.26
2018-07-15T11:39:16.507Z,35.20
2018-07-15T11:40:16.793Z,35.24
2018-07-15T11:41:16.835Z,33.48
2018-07-15T11:42:17.403Z,32.76
2018-07-15T11:43:16.673Z,32.83
2018-07-15T11:44:16.936Z,33.22
2018-07-15T11:45:17.202Z,33.83
2018-07-15T11:46:16.460Z,33.26
2018-07-15T11:47:16.720Z,32.83
2018-07-15T11:48:17.052Z,33.98
2018-07-15T11:49:16.504Z,34.10
2018-07-15T11:50:16.771Z,34.17
2018-07-15T11:51:16.816Z,33.59
2018-07-15T11:52:17.097Z,33.13
2018-07-15T11:53:16.353Z,32.86
2018-07-15T11:54:16.610Z,32.84
2018-07-15T11:55:16.870Z,32.83
2018-07-15T11:56:17.132Z,32.43
2018-07-15T11:57:16.388Z,32.25
2018-07-15T11:58:16.950Z,32.51
2018-07-15T11:59:16.208Z,32.70
2018-07-15T12:00:16.491Z,32.66
2018-07-15T12:01:16.522Z,32.00
2018-07-15T12:02:16.781Z,31.82
2018-07-15T12:03:17.042Z,31.88
2018-07-15T12:04:16.302Z,32.08
2018-07-15T12:05:16.563Z,32.08
2018-07-15T12:06:16.831Z,31.90
2018-07-15T12:07:17.091Z,31.81
2018-07-15T12:08:16.346Z,31.52
2018-07-15T12:09:16.608Z,31.40
2018-07-15T12:10:16.883Z,31.14
2018-07-15T12:11:16.922Z,30.66
2018-07-15T12:12:17.180Z,30.41
2018-07-15T12:13:16.441Z,30.32
2018-07-15T12:14:16.701Z,29.98
2018-07-15T12:15:16.968Z,28.82
2018-07-15T12:16:16.225Z,28.47
2018-07-15T12:17:16.488Z,27.43
2018-07-15T12:18:16.746Z,27.11
2018-07-15T12:19:17.311Z,26.81
2018-07-15T12:20:16.572Z,26.44
2018-07-15T12:21:16.629Z,26.22
2018-07-15T12:22:16.892Z,25.94
2018-07-15T12:23:17.154Z,25.32
2018-07-15T12:24:16.413Z,25.22
2018-07-15T12:25:16.675Z,24.88
2018-07-15T12:26:16.940Z,24.45
2018-07-15T12:27:16.205Z,24.41
2018-07-15T12:28:16.527Z,24.49
2018-07-15T12:29:16.867Z,24.12
2018-07-15T12:30:17.147Z,24.10
2018-07-15T12:31:17.181Z,24.12
2018-07-15T12:32:16.443Z,24.12
2018-07-15T12:33:16.697Z,24.03
2018-07-15T12:34:16.948Z,24.20
2018-07-15T12:35:16.210Z,24.06
2018-07-15T12:36:16.465Z,24.12
2018-07-15T12:37:16.730Z,24.06
2018-07-15T12:38:16.998Z,23.70
2018-07-15T12:39:16.258Z,23.57
2018-07-15T12:40:16.528Z,23.51
2018-07-15T12:41:16.558Z,23.54
2018-07-15T12:42:16.821Z,23.44
2018-07-15T12:43:17.107Z,23.55
2018-07-15T12:44:16.443Z,23.74
2018-07-15T12:45:16.702Z,23.83
2018-07-15T12:46:16.967Z,23.84
2018-07-15T12:47:16.220Z,23.78
2018-07-15T12:48:16.482Z,23.88
2018-07-15T12:49:16.757Z,23.87
2018-07-15T12:50:17.026Z,23.96
2018-07-15T12:51:17.070Z,24.03
2018-07-15T12:52:16.434Z,24.28
2018-07-15T12:53:16.867Z,24.42